createdAt,value
2018-02-09T00:00:41.166Z,0.50
2018-02-09T00:03:10.986Z,0.47
2018-02-09T00:05:40.898Z,0.47
2018-02-09T00:08:10.615Z,0.49
2018-02-09T00:10:42.575Z,0.45
2018-02-09T00:13:12.324Z,0.45
2018-02-09T00:15:42.083Z,0.45
2018-02-09T00:18:12.057Z,0.43
2018-02-09T00:20:41.880Z,0.42
2018-02-09T00:23:12.310Z,0.42
2018-02-09T00:25:42.767Z,0.39
2018-02-09T00:28:12.596Z,0.35
2018-02-09T00:30:42.350Z,0.37
2018-02-09T00:33:12.073Z,0.32
2018-02-09T00:35:41.773Z,0.36
2018-02-09T00:38:11.528Z,0.26
2018-02-09T00:40:41.295Z,0.29
2018-02-09T00:43:11.084Z,0.28
2018-02-09T00:45:40.793Z,0.31
2018-02-09T00:48:10.564Z,0.27
2018-02-09T00:50:40.281Z,0.27
2018-02-09T00:53:10.250Z,0.31
2018-02-09T00:55:40.713Z,0.31
2018-02-09T00:58:10.425Z,0.40
2018-02-09T01:00:40.234Z,0.32
2018-02-09T01:03:09.914Z,0.28
2018-02-09T01:05:40.480Z,0.25
2018-02-09T01:08:10.357Z,0.24
2018-02-09T01:10:40.080Z,0.27
2018-02-09T01:13:09.784Z,0.22
2018-02-09T01:15:39.583Z,0.20
2018-02-09T01:18:09.371Z,0.22
2018-02-09T01:20:39.148Z,0.23
2018-02-09T01:23:09.010Z,0.19
2018-02-09T01:25:39.569Z,0.22
2018-02-09T01:28:09.459Z,0.27
2018-02-09T01:30:40.078Z,0.20
2018-02-09T01:33:09.832Z,0.16
2018-02-09T01:35:39.552Z,0.22
2018-02-09T01:38:09.284Z,0.20
2018-02-09T01:40:39.153Z,0.15
2018-02-09T01:43:08.949Z,0.16
2018-02-09T01:45:39.505Z,0.15
2018-02-09T01:48:09.272Z,0.16
2018-02-09T01:50:39.015Z,0.12
2018-02-09T01:53:09.598Z,0.14
2018-02-09T01:55:39.332Z,0.11
2018-02-09T01:58:09.103Z,0.12
2018-02-09T02:00:38.879Z,0.14
2018-02-09T02:03:08.654Z,0.23
2018-02-09T02:05:38.450Z,0.31
2018-02-09T02:08:08.337Z,0.30
2018-02-09T02:10:38.058Z,0.28
2018-02-09T02:13:07.831Z,0.27
2018-02-09T02:15:37.701Z,0.25
2018-02-09T02:18:07.426Z,0.28
2018-02-09T02:20:37.179Z,0.30
2018-02-09T02:23:07.043Z,0.37
2018-02-09T02:25:36.804Z,0.35
2018-02-09T02:28:06.558Z,0.38
2018-02-09T02:30:36.348Z,0.42
2018-02-09T02:33:06.210Z,0.44
2018-02-09T02:35:36.739Z,0.43
2018-02-09T02:38:06.607Z,0.43
2018-02-09T02:40:36.446Z,0.48
2018-02-09T02:43:06.266Z,0.46
2018-02-09T02:45:36.151Z,0.51
2018-02-09T02:48:06.020Z,0.53
2018-02-09T02:50:38.298Z,0.53
2018-02-09T02:53:08.132Z,0.53
2018-02-09T02:55:37.881Z,0.53
2018-02-09T02:58:07.595Z,0.55
2018-02-09T03:00:37.400Z,0.55
2018-02-09T03:03:07.180Z,0.61
2018-02-09T03:05:36.924Z,0.66
2018-02-09T03:08:06.645Z,0.70
2018-02-09T03:10:37.138Z,0.72
2018-02-09T03:13:06.911Z,0.74
2018-02-09T03:15:36.721Z,0.66
2018-02-09T03:18:06.474Z,0.68
2018-02-09T03:20:36.200Z,0.63
2018-02-09T03:23:06.151Z,0.65
2018-02-09T03:25:35.885Z,0.59
2018-02-09T03:28:05.558Z,0.67
2018-02-09T03:30:35.304Z,0.66
2018-02-09T03:33:05.006Z,0.67
2018-02-09T03:35:34.825Z,0.65
2018-02-09T03:38:05.388Z,0.66
2018-02-09T03:40:35.140Z,0.64
2018-02-09T03:43:04.823Z,0.57
2018-02-09T03:45:34.554Z,0.57
2018-02-09T03:48:04.320Z,0.51
2018-02-09T03:50:34.155Z,0.52
2018-02-09T03:53:03.877Z,0.55
2018-02-09T03:55:34.515Z,0.57
2018-02-09T03:58:04.228Z,0.51
2018-02-09T04:00:34.031Z,0.51
2018-02-09T04:03:03.870Z,0.50
2018-02-09T04:05:33.585Z,0.49
2018-02-09T04:08:03.285Z,0.54
2018-02-09T04:10:33.080Z,0.52
2018-02-09T04:13:02.830Z,0.52
2018-02-09T04:15:32.667Z,0.51
2018-02-09T04:18:02.448Z,0.49
2018-02-09T04:20:32.240Z,0.57
2018-02-09T04:23:02.244Z,0.54
2018-02-09T04:25:32.800Z,0.61
2018-02-09T04:28:02.474Z,0.45
2018-02-09T04:30:32.300Z,0.45
2018-02-09T04:33:01.993Z,0.45
2018-02-09T04:35:31.734Z,0.42
2018-02-09T04:38:01.554Z,0.48
2018-02-09T04:40:31.336Z,0.43
2018-02-09T04:43:01.851Z,0.47
2018-02-09T04:45:31.690Z,0.48
2018-02-09T04:48:01.475Z,0.48
2018-02-09T04:50:32.279Z,0.45
2018-02-09T04:53:02.012Z,0.48
2018-02-09T04:55:31.779Z,0.43
2018-02-09T04:58:01.563Z,0.44
2018-02-09T05:00:31.556Z,0.40
2018-02-09T05:03:01.380Z,0.89
2018-02-09T05:05:31.212Z,0.83
2018-02-09T05:08:01.242Z,0.68
2018-02-09T05:10:31.411Z,0.59
2018-02-09T05:13:01.246Z,0.38
2018-02-09T05:15:31.891Z,0.29
2018-02-09T05:18:01.860Z,0.32
2018-02-09T05:20:31.627Z,0.32
2018-02-09T05:23:01.515Z,0.34
2018-02-09T05:25:31.280Z,0.36
2018-02-09T05:28:01.135Z,0.37
2018-02-09T05:30:31.715Z,0.19
2018-02-09T05:33:01.602Z,0.26
2018-02-09T05:35:31.413Z,0.32
2018-02-09T05:38:01.401Z,0.36
2018-02-09T05:40:32.955Z,0.31
2018-02-09T05:43:02.743Z,0.35
2018-02-09T05:45:32.691Z,0.38
2018-02-09T05:48:02.752Z,0.39
2018-02-09T05:50:32.666Z,0.45
2018-02-09T05:53:02.555Z,0.93
2018-02-09T05:55:32.337Z,0.58
2018-02-09T05:58:02.307Z,0.48
2018-02-09T06:00:32.368Z,0.42
2018-02-09T06:03:02.336Z,0.38
2018-02-09T06:05:34.922Z,0.35
2018-02-09T06:08:04.774Z,0.62
2018-02-09T06:10:45.528Z,0.68
2018-02-09T06:13:15.363Z,0.52
2018-02-09T06:15:45.948Z,0.48
2018-02-09T06:18:15.946Z,0.40
2018-02-09T06:20:45.911Z,0.41
2018-02-09T06:23:15.616Z,0.28
2018-02-09T06:25:45.367Z,0.63
2018-02-09T06:28:15.235Z,0.56
2018-02-09T06:30:45.003Z,0.45
2018-02-09T06:33:14.787Z,0.40
2018-02-09T06:35:45.319Z,0.43
2018-02-09T06:38:15.803Z,0.38
2018-02-09T06:40:45.562Z,0.25
2018-02-09T06:43:15.402Z,0.21
2018-02-09T06:45:45.110Z,0.13
2018-02-09T06:48:14.908Z,0.01
2018-02-09T06:50:44.830Z,-0.01
2018-02-09T06:53:14.595Z,0.03
2018-02-09T06:55:44.371Z,0.08
2018-02-09T06:58:14.148Z,0.08
2018-02-09T07:00:43.918Z,0.12
2018-02-09T07:03:13.689Z,0.15
2018-02-09T07:05:43.432Z,0.13
2018-02-09T07:08:14.129Z,-0.02
2018-02-09T07:10:43.956Z,0.00
2018-02-09T07:13:14.388Z,0.00
2018-02-09T07:15:44.152Z,0.07
2018-02-09T07:18:13.960Z,0.10
2018-02-09T07:20:44.607Z,0.07
2018-02-09T07:23:14.457Z,0.14
2018-02-09T07:25:44.724Z,0.32
2018-02-09T07:28:15.288Z,0.22
2018-02-09T07:30:45.396Z,0.21
2018-02-09T07:33:15.150Z,0.24
2018-02-09T07:35:45.975Z,0.24
2018-02-09T07:38:15.758Z,0.27
2018-02-09T07:40:49.651Z,0.30
2018-02-09T07:43:19.614Z,0.30
2018-02-09T07:45:49.422Z,0.21
2018-02-09T07:48:19.295Z,0.33
2018-02-09T07:50:49.125Z,0.16
2018-02-09T07:53:18.983Z,0.31
2018-02-09T07:55:50.222Z,0.40
2018-02-09T07:58:20.016Z,0.44
2018-02-09T08:00:57.701Z,0.45
2018-02-09T08:03:28.514Z,0.46
2018-02-09T08:05:58.705Z,0.49
2018-02-09T08:08:28.473Z,0.47
2018-02-09T08:10:58.304Z,0.64
2018-02-09T08:13:28.067Z,0.74
2018-02-09T08:15:57.932Z,0.87
2018-02-09T08:18:27.747Z,0.96
2018-02-09T08:20:57.587Z,1.05
2018-02-09T08:23:27.601Z,0.88
2018-02-09T08:25:57.497Z,1.13
2018-02-09T08:28:27.551Z,1.11
2018-02-09T08:30:57.394Z,1.16
2018-02-09T08:33:27.230Z,1.11
2018-02-09T08:35:57.045Z,1.21
2018-02-09T08:38:26.935Z,1.33
2018-02-09T08:40:56.809Z,1.32
2018-02-09T08:43:26.789Z,1.43
2018-02-09T08:45:56.618Z,1.50
2018-02-09T08:48:26.478Z,1.65
2018-02-09T08:50:56.296Z,1.63
2018-02-09T08:53:26.140Z,1.69
2018-02-09T08:55:56.044Z,1.57
2018-02-09T08:58:25.880Z,1.68
2018-02-09T09:00:55.820Z,1.88
2018-02-09T09:03:25.691Z,1.81
2018-02-09T09:05:55.534Z,1.83
2018-02-09T09:08:26.083Z,1.97
2018-02-09T09:10:56.185Z,2.19
2018-02-09T09:13:26.816Z,2.11
2018-02-09T09:15:58.511Z,1.91
2018-02-09T09:18:31.303Z,2.06
2018-02-09T09:21:01.138Z,2.07
2018-02-09T09:23:30.910Z,1.97
2018-02-09T09:26:00.743Z,2.05
2018-02-09T09:28:30.642Z,2.05
2018-02-09T09:31:00.459Z,1.96
2018-02-09T09:33:30.382Z,2.03
2018-02-09T09:36:00.280Z,2.14
2018-02-09T09:38:30.054Z,1.97
2018-02-09T09:41:00.076Z,2.03
2018-02-09T09:43:30.659Z,2.07
2018-02-09T09:46:00.475Z,2.29
2018-02-09T09:48:30.255Z,2.37
2018-02-09T09:51:00.055Z,2.40
2018-02-09T09:53:30.681Z,2.38
2018-02-09T09:56:01.128Z,2.48
2018-02-09T09:58:31.059Z,2.27
2018-02-09T10:01:01.481Z,2.28
2018-02-09T10:03:31.499Z,2.28
2018-02-09T10:06:01.582Z,2.19
2018-02-09T10:08:31.367Z,2.32
2018-02-09T10:11:01.819Z,2.20
2018-02-09T10:13:31.858Z,2.17
2018-02-09T10:16:01.782Z,2.31
2018-02-09T10:18:31.719Z,2.30
2018-02-09T10:21:01.527Z,2.30
2018-02-09T10:23:31.347Z,2.41
2018-02-09T10:26:01.145Z,2.73
2018-02-09T10:28:31.147Z,2.68
2018-02-09T10:31:01.047Z,2.70
2018-02-09T10:33:30.864Z,2.73
2018-02-09T10:36:00.633Z,2.67
2018-02-09T10:38:30.610Z,2.53
2018-02-09T10:41:01.141Z,2.41
2018-02-09T10:43:31.050Z,2.43
2018-02-09T10:46:01.627Z,2.33
2018-02-09T10:48:32.323Z,2.56
2018-02-09T10:51:02.030Z,2.71
2018-02-09T10:53:31.879Z,2.76
2018-02-09T10:56:01.657Z,2.85
2018-02-09T10:58:31.566Z,2.74
2018-02-09T11:01:01.318Z,2.86
2018-02-09T11:03:31.954Z,2.97
2018-02-09T11:06:03.517Z,2.87
2018-02-09T11:08:34.042Z,2.79
2018-02-09T11:11:07.801Z,2.86
2018-02-09T11:13:37.588Z,2.91
2018-02-09T11:16:07.540Z,2.97
2018-02-09T11:18:37.602Z,3.01
2018-02-09T11:21:07.419Z,3.01
2018-02-09T11:23:37.383Z,3.12
2018-02-09T11:26:07.204Z,3.07
2018-02-09T11:28:37.120Z,3.11
2018-02-09T11:31:06.964Z,3.16
2018-02-09T11:33:37.012Z,3.01
2018-02-09T11:36:06.732Z,2.98
2018-02-09T11:38:36.665Z,3.08
2018-02-09T11:41:06.444Z,3.20
2018-02-09T11:43:36.290Z,3.13
2018-02-09T11:46:06.054Z,3.22
2018-02-09T11:48:36.050Z,3.28
2018-02-09T11:51:05.886Z,3.14
2018-02-09T11:53:35.684Z,3.22
2018-02-09T11:56:06.167Z,3.31
2018-02-09T11:58:36.942Z,3.34
2018-02-09T12:01:06.823Z,3.30
2018-02-09T12:03:36.640Z,3.43
2018-02-09T12:06:06.482Z,3.47
2018-02-09T12:08:36.348Z,3.63
2018-02-09T12:11:06.272Z,3.57
2018-02-09T12:13:36.096Z,3.56
2018-02-09T12:16:05.969Z,3.36
2018-02-09T12:18:36.700Z,3.73
2018-02-09T12:21:06.528Z,3.77
2018-02-09T12:23:36.400Z,3.77
2018-02-09T12:26:07.126Z,3.76
2018-02-09T12:28:36.823Z,3.79
2018-02-09T12:31:07.481Z,3.60
2018-02-09T12:33:38.380Z,3.75
2018-02-09T12:36:08.165Z,3.75
2018-02-09T12:38:37.997Z,3.81
2018-02-09T12:41:07.825Z,3.77
2018-02-09T12:43:38.456Z,3.77
2018-02-09T12:46:09.048Z,3.94
2018-02-09T12:48:40.254Z,4.02
2018-02-09T12:51:10.038Z,4.10
2018-02-09T12:53:39.924Z,4.08
2018-02-09T12:56:09.968Z,4.25
2018-02-09T12:58:40.740Z,4.23
2018-02-09T13:01:10.507Z,4.12
2018-02-09T13:03:40.622Z,4.02
2018-02-09T13:06:10.612Z,4.21
2018-02-09T13:08:40.587Z,4.19
2018-02-09T13:11:10.370Z,4.33
2018-02-09T13:13:40.250Z,4.24
2018-02-09T13:16:10.037Z,4.10
2018-02-09T13:18:58.394Z,4.16
2018-02-09T13:21:28.314Z,4.18
2018-02-09T13:24:29.159Z,4.42
2018-02-09T13:26:58.996Z,4.36
2018-02-09T13:29:28.834Z,4.45
2018-02-09T13:32:01.282Z,4.46
2018-02-09T13:34:32.762Z,4.53
2018-02-09T13:37:21.931Z,4.53
2018-02-09T13:39:51.752Z,4.48
2018-02-09T13:42:21.660Z,4.61
2018-02-09T13:44:51.454Z,4.68
2018-02-09T13:47:22.216Z,4.80
2018-02-09T13:49:52.004Z,4.74
2018-02-09T13:52:22.680Z,4.70
2018-02-09T13:54:52.533Z,4.71
2018-02-09T13:57:22.400Z,4.71
2018-02-09T13:59:52.141Z,4.58
2018-02-09T14:02:22.744Z,4.54
2018-02-09T14:04:52.496Z,4.52
2018-02-09T14:07:22.350Z,4.48
2018-02-09T14:09:52.124Z,4.62
2018-02-09T14:12:21.992Z,4.59
2018-02-09T14:14:51.824Z,4.52
2018-02-09T14:17:21.720Z,4.39
2018-02-09T14:19:51.727Z,4.44
2018-02-09T14:22:21.514Z,4.47
2018-02-09T14:24:52.112Z,4.74
2018-02-09T14:27:21.978Z,4.63
2018-02-09T14:29:51.948Z,4.42
2018-02-09T14:32:22.470Z,4.45
2018-02-09T14:34:52.392Z,4.36
2018-02-09T14:37:22.156Z,4.27
2018-02-09T14:39:51.974Z,4.31
2018-02-09T14:42:21.828Z,4.25
2018-02-09T14:44:52.066Z,4.10
2018-02-09T14:47:22.671Z,4.09
2018-02-09T14:49:53.016Z,4.09
2018-02-09T14:52:23.942Z,4.00
2018-02-09T14:54:54.009Z,3.94
2018-02-09T14:57:23.894Z,3.81
2018-02-09T14:59:54.558Z,3.91
2018-02-09T15:02:24.483Z,3.73
2018-02-09T15:04:55.328Z,3.76
2018-02-09T15:07:25.920Z,3.75
2018-02-09T15:09:55.811Z,3.70
2018-02-09T15:12:25.611Z,3.64
2018-02-09T15:14:55.472Z,3.44
2018-02-09T15:17:25.452Z,3.50
2018-02-09T15:19:55.264Z,3.52
2018-02-09T15:22:25.026Z,3.44
2018-02-09T15:24:57.106Z,3.46
2018-02-09T15:27:27.031Z,3.49
2018-02-09T15:29:57.014Z,3.38
2018-02-09T15:32:27.204Z,3.76
2018-02-09T15:34:57.273Z,3.58
2018-02-09T15:37:28.335Z,3.38
2018-02-09T15:39:58.968Z,3.34
2018-02-09T15:42:29.694Z,3.21
2018-02-09T15:45:00.319Z,3.17
2018-02-09T15:47:31.986Z,3.44
2018-02-09T15:50:01.847Z,3.75
2018-02-09T15:52:32.082Z,3.46
2018-02-09T15:55:01.921Z,3.43
2018-02-09T15:57:31.815Z,3.33
2018-02-09T16:00:02.336Z,3.47
2018-02-09T16:02:32.211Z,3.36
2018-02-09T16:05:02.868Z,3.28
2018-02-09T16:07:32.910Z,3.20
2018-02-09T16:10:02.656Z,3.64
2018-02-09T16:12:34.642Z,3.50
2018-02-09T16:15:07.075Z,3.32
2018-02-09T16:17:36.814Z,3.38
2018-02-09T16:20:10.731Z,3.31
2018-02-09T16:22:40.524Z,3.17
2018-02-09T16:25:10.366Z,3.14
2018-02-09T16:27:40.989Z,3.14
2018-02-09T16:30:11.469Z,3.10
2018-02-09T16:32:41.216Z,3.09
2018-02-09T16:35:11.095Z,3.18
2018-02-09T16:37:41.267Z,4.49
2018-02-09T16:40:11.226Z,3.96
2018-02-09T16:42:41.126Z,3.61
2018-02-09T16:45:11.012Z,3.57
2018-02-09T16:47:42.101Z,4.17
2018-02-09T16:50:11.986Z,3.79
2018-02-09T16:52:43.258Z,3.90
2018-02-09T16:55:13.157Z,3.65
2018-02-09T16:57:44.208Z,3.53
2018-02-09T17:00:14.017Z,3.41
2018-02-09T17:02:44.351Z,3.22
2018-02-09T17:05:14.144Z,3.26
2018-02-09T17:07:44.869Z,3.32
2018-02-09T17:10:14.710Z,3.23
2018-02-09T17:12:45.617Z,3.54
2018-02-09T17:15:15.376Z,3.29
2018-02-09T17:17:52.095Z,3.30
2018-02-09T17:20:22.118Z,3.51
2018-02-09T17:22:51.800Z,3.34
2018-02-09T17:25:23.048Z,3.21
2018-02-09T17:27:53.458Z,3.21
2018-02-09T17:30:23.759Z,3.25
2018-02-09T17:32:53.463Z,3.27
2018-02-09T17:35:24.714Z,3.18
2018-02-09T17:37:54.442Z,3.21
2018-02-09T17:40:24.226Z,3.03
2018-02-09T17:42:53.943Z,3.05
2018-02-09T17:45:23.818Z,3.04
2018-02-09T17:47:53.592Z,3.02
2018-02-09T17:50:23.550Z,3.03
2018-02-09T17:52:53.999Z,3.01
2018-02-09T17:55:26.658Z,3.03
2018-02-09T17:57:57.814Z,2.94
2018-02-09T18:00:27.626Z,2.84
2018-02-09T18:03:00.412Z,2.88
2018-02-09T18:05:31.271Z,2.84
2018-02-09T18:08:01.556Z,2.81
2018-02-09T18:10:31.301Z,2.86
2018-02-09T18:13:01.119Z,2.94
2018-02-09T18:15:30.938Z,2.90
2018-02-09T18:18:00.820Z,2.91
2018-02-09T18:20:30.696Z,2.96
2018-02-09T18:23:00.450Z,2.96
2018-02-09T18:25:30.268Z,2.93
2018-02-09T18:28:04.958Z,2.89
2018-02-09T18:30:35.444Z,2.85
2018-02-09T18:33:05.453Z,2.96
2018-02-09T18:35:35.526Z,2.87
2018-02-09T18:38:05.253Z,2.90
2018-02-09T18:40:35.567Z,2.97
2018-02-09T18:43:05.242Z,4.19
2018-02-09T18:45:34.950Z,5.67
2018-02-09T18:48:05.432Z,6.43
2018-02-09T18:50:36.619Z,6.52
2018-02-09T18:53:06.352Z,5.64
2018-02-09T18:55:37.368Z,4.55
2018-02-09T18:58:07.899Z,4.15
2018-02-09T19:00:40.746Z,3.76
2018-02-09T19:03:10.481Z,3.73
2018-02-09T19:05:41.228Z,3.51
2018-02-09T19:08:12.550Z,3.42
2018-02-09T19:10:43.173Z,3.17
2018-02-09T19:13:13.141Z,3.15
2018-02-09T19:15:42.890Z,3.03
2018-02-09T19:18:13.296Z,3.06
2018-02-09T19:20:43.480Z,3.10
2018-02-09T19:23:13.553Z,3.00
2018-02-09T19:25:43.390Z,3.08
2018-02-09T19:28:17.360Z,3.10
2018-02-09T19:30:47.009Z,3.07
2018-02-09T19:33:16.888Z,2.99
2018-02-09T19:35:46.568Z,3.05
2018-02-09T19:38:19.349Z,3.07
2018-02-09T19:40:49.080Z,3.13
2018-02-09T19:43:18.792Z,3.19
2018-02-09T19:45:48.595Z,3.05
2018-02-09T19:48:18.351Z,3.00
2018-02-09T19:50:48.211Z,3.10
2018-02-09T19:53:17.827Z,3.06
2018-02-09T19:55:47.950Z,3.00
2018-02-09T19:58:18.820Z,3.02
2018-02-09T20:00:48.488Z,3.05
2018-02-09T20:03:18.490Z,3.03
2018-02-09T20:05:49.078Z,3.16
2018-02-09T20:08:18.895Z,3.03
2018-02-09T20:10:48.635Z,3.05
2018-02-09T20:13:19.209Z,3.06
2018-02-09T20:15:49.276Z,3.01
2018-02-09T20:18:21.134Z,3.03
2018-02-09T20:20:51.619Z,2.96
2018-02-09T20:23:21.327Z,3.03
2018-02-09T20:25:51.494Z,3.04
2018-02-09T20:28:21.360Z,3.03
2018-02-09T20:30:51.564Z,2.97
2018-02-09T20:33:21.317Z,3.01
2018-02-09T20:35:52.208Z,3.01
2018-02-09T20:38:21.902Z,3.16
2018-02-09T20:40:53.825Z,3.08
2018-02-09T20:43:23.649Z,3.08
2018-02-09T20:45:56.372Z,3.15
2018-02-09T20:48:26.078Z,3.22
2018-02-09T20:50:55.906Z,3.11
2018-02-09T20:53:25.585Z,3.13
2018-02-09T20:55:56.166Z,3.13
2018-02-09T20:58:25.950Z,3.14
2018-02-09T21:00:57.346Z,3.15
2018-02-09T21:03:27.945Z,3.27
2018-02-09T21:05:57.840Z,3.21
2018-02-09T21:08:27.685Z,3.27
2018-02-09T21:10:57.415Z,3.27
2018-02-09T21:13:27.111Z,3.24
2018-02-09T21:15:56.825Z,3.27
2018-02-09T21:18:26.613Z,3.29
2018-02-09T21:20:56.309Z,3.13
2018-02-09T21:23:26.204Z,3.14
2018-02-09T21:25:56.332Z,3.11
2018-02-09T21:28:26.192Z,3.16
2018-02-09T21:30:56.626Z,3.16
2018-02-09T21:33:27.176Z,3.11
2018-02-09T21:35:57.202Z,3.16
2018-02-09T21:38:27.002Z,3.19
2018-02-09T21:40:57.214Z,3.20
2018-02-09T21:43:27.845Z,3.30
2018-02-09T21:45:58.425Z,3.30
2018-02-09T21:48:32.339Z,3.22
2018-02-09T21:51:02.369Z,3.28
2018-02-09T21:53:32.023Z,3.32
2018-02-09T21:56:01.714Z,3.38
2018-02-09T21:58:32.242Z,3.37
2018-02-09T22:01:02.665Z,3.28
2018-02-09T22:03:33.142Z,3.31
2018-02-09T22:06:03.111Z,3.30
2018-02-09T22:08:33.643Z,3.31
2018-02-09T22:11:04.145Z,3.39
2018-02-09T22:13:33.967Z,3.37
2018-02-09T22:16:03.729Z,3.39
2018-02-09T22:18:33.412Z,3.37
2018-02-09T22:21:03.833Z,3.24
2018-02-09T22:23:34.423Z,3.36
2018-02-09T22:26:04.129Z,3.26
2018-02-09T22:28:33.805Z,3.30
2018-02-09T22:31:03.596Z,3.30
2018-02-09T22:33:34.006Z,3.20
2018-02-09T22:36:03.742Z,3.24
2018-02-09T22:38:33.597Z,3.29
2018-02-09T22:41:03.432Z,3.29
2018-02-09T22:43:33.149Z,3.39
2018-02-09T22:46:03.055Z,3.38
2018-02-09T22:48:32.689Z,3.33
2018-02-09T22:51:03.173Z,3.40
2018-02-09T22:53:32.869Z,3.38
2018-02-09T22:56:04.924Z,3.37
2018-02-09T22:58:34.756Z,3.36
2018-02-09T23:01:04.657Z,3.35
2018-02-09T23:03:35.781Z,3.33
2018-02-09T23:06:07.853Z,3.40
2018-02-09T23:08:37.654Z,3.32
2018-02-09T23:11:07.384Z,3.28
2018-02-09T23:13:38.299Z,3.31
2018-02-09T23:16:08.141Z,3.36
2018-02-09T23:18:37.863Z,3.31
2018-02-09T23:21:07.743Z,3.37
2018-02-09T23:23:37.521Z,3.30
2018-02-09T23:26:07.969Z,3.18
2018-02-09T23:28:37.734Z,3.31
2018-02-09T23:31:07.478Z,3.30
2018-02-09T23:33:38.043Z,3.26
2018-02-09T23:36:08.863Z,3.29
2018-02-09T23:38:38.621Z,3.29
2018-02-09T23:41:08.338Z,3.38
2018-02-09T23:43:38.542Z,3.42
2018-02-09T23:46:08.320Z,3.43
2018-02-09T23:48:38.183Z,3.40
2018-02-09T23:51:10.753Z,3.30
2018-02-09T23:53:40.494Z,3.32
2018-02-09T23:56:11.005Z,3.34
2018-02-09T23:58:41.216Z,3.32
